createdAt,value
2018-01-13T00:01:30.124Z,31.77
2018-01-13T00:03:57.961Z,32.97
2018-01-13T00:06:25.660Z,30.50
2018-01-13T00:08:54.022Z,27.40
2018-01-13T00:11:21.628Z,27.13
2018-01-13T00:13:49.421Z,26.30
2018-01-13T00:16:17.034Z,30.60
2018-01-13T00:18:45.509Z,29.67
2018-01-13T00:21:13.983Z,31.40
2018-01-13T00:23:42.520Z,30.10
2018-01-13T00:26:10.132Z,30.00
2018-01-13T00:28:38.581Z,31.33
2018-01-13T00:31:07.379Z,27.00
2018-01-13T00:33:35.017Z,29.77
2018-01-13T00:36:02.634Z,24.70
2018-01-13T00:38:30.459Z,23.73
2018-01-13T00:40:58.060Z,27.83
2018-01-13T00:43:25.798Z,22.90
2018-01-13T00:45:54.166Z,21.80
2018-01-13T00:48:22.604Z,26.97
2018-01-13T00:50:50.222Z,23.50
2018-01-13T00:53:18.636Z,22.30
2018-01-13T00:55:46.321Z,26.50
2018-01-13T00:58:14.036Z,23.87
2018-01-13T01:00:41.643Z,24.80
2018-01-13T01:03:09.384Z,24.60
2018-01-13T01:05:37.007Z,22.47
2018-01-13T01:08:04.806Z,23.03
2018-01-13T01:10:32.404Z,26.40
2018-01-13T01:12:59.996Z,26.83
2018-01-13T01:15:27.602Z,26.53
2018-01-13T01:17:55.345Z,29.33
2018-01-13T01:20:23.063Z,29.97
2018-01-13T01:22:51.505Z,33.17
2018-01-13T01:25:19.208Z,27.27
2018-01-13T01:27:46.797Z,27.67
2018-01-13T01:30:14.433Z,29.90
2018-01-13T01:32:42.062Z,26.77
2018-01-13T01:35:09.832Z,25.43
2018-01-13T01:37:38.252Z,23.80
2018-01-13T01:40:05.954Z,26.83
2018-01-13T01:42:33.586Z,23.90
2018-01-13T01:45:01.206Z,26.53
2018-01-13T01:47:29.009Z,30.97
2018-01-13T01:49:56.618Z,31.47
2018-01-13T01:52:24.211Z,27.43
2018-01-13T01:54:51.914Z,29.73
2018-01-13T01:57:19.532Z,29.43
2018-01-13T01:59:47.212Z,27.57
2018-01-13T02:02:14.850Z,31.53
2018-01-13T02:04:42.630Z,31.70
2018-01-13T02:07:11.036Z,31.73
2018-01-13T02:09:38.660Z,28.47
2018-01-13T02:12:06.381Z,29.67
2018-01-13T02:14:34.771Z,31.03
2018-01-13T02:17:02.467Z,31.20
2018-01-13T02:19:30.332Z,29.10
2018-01-13T02:21:58.041Z,26.70
2018-01-13T02:24:26.622Z,27.60
2018-01-13T02:26:54.988Z,34.33
2018-01-13T02:29:22.574Z,27.43
2018-01-13T02:31:51.275Z,28.07
2018-01-13T02:34:19.060Z,24.80
2018-01-13T02:36:46.670Z,26.13
2018-01-13T02:39:15.198Z,23.50
2018-01-13T02:41:42.828Z,28.20
2018-01-13T02:44:10.468Z,25.80
2018-01-13T02:46:38.847Z,28.33
2018-01-13T02:49:07.222Z,30.37
2018-01-13T02:51:35.605Z,31.27
2018-01-13T02:54:04.073Z,28.20
2018-01-13T02:56:32.609Z,31.77
2018-01-13T02:59:01.189Z,29.90
2018-01-13T03:01:28.806Z,34.50
2018-01-13T03:03:57.172Z,30.40
2018-01-13T03:06:25.708Z,31.40
2018-01-13T03:08:53.398Z,29.17
2018-01-13T03:11:21.950Z,31.77
2018-01-13T03:13:50.393Z,27.00
2018-01-13T03:16:18.016Z,27.50
2018-01-13T03:18:46.467Z,26.50
2018-01-13T03:21:14.078Z,26.47
2018-01-13T03:23:42.638Z,23.50
2018-01-13T03:26:10.473Z,26.30
2018-01-13T03:28:38.065Z,27.70
2018-01-13T03:31:06.466Z,29.17
2018-01-13T03:33:34.875Z,40.63
2018-01-13T03:36:02.500Z,31.17
2018-01-13T03:38:31.133Z,29.70
2018-01-13T03:40:58.745Z,34.53
2018-01-13T03:43:27.101Z,33.80
2018-01-13T03:45:54.771Z,33.97
2018-01-13T03:48:23.167Z,31.37
2018-01-13T03:50:50.864Z,35.43
2018-01-13T03:53:18.474Z,35.83
2018-01-13T03:55:46.836Z,36.43
2018-01-13T03:58:14.691Z,38.60
2018-01-13T04:00:42.499Z,40.10
2018-01-13T04:03:10.160Z,35.87
2018-01-13T04:05:37.790Z,34.27
2018-01-13T04:08:06.142Z,31.00
2018-01-13T04:10:33.732Z,31.53
2018-01-13T04:13:02.124Z,33.07
2018-01-13T04:15:29.720Z,32.97
2018-01-13T04:17:57.480Z,31.40
2018-01-13T04:20:25.090Z,35.17
2018-01-13T04:22:53.470Z,38.57
2018-01-13T04:25:21.922Z,36.77
2018-01-13T04:27:49.520Z,37.70
2018-01-13T04:30:17.209Z,44.40
2018-01-13T04:32:44.977Z,35.80
2018-01-13T04:35:12.563Z,39.77
2018-01-13T04:37:40.178Z,38.57
2018-01-13T04:40:07.771Z,36.07
2018-01-13T04:42:35.566Z,36.53
2018-01-13T04:45:03.960Z,40.27
2018-01-13T04:47:31.624Z,38.23
2018-01-13T04:49:59.216Z,41.07
2018-01-13T04:52:26.975Z,47.13
2018-01-13T04:54:54.739Z,43.30
2018-01-13T04:57:22.558Z,36.90
2018-01-13T04:59:51.027Z,35.60
2018-01-13T05:02:19.563Z,38.57
2018-01-13T05:04:47.188Z,40.10
2018-01-13T05:07:15.476Z,40.20
2018-01-13T05:09:43.093Z,39.47
2018-01-13T05:12:11.457Z,36.40
2018-01-13T05:14:39.120Z,39.77
2018-01-13T05:17:06.957Z,36.17
2018-01-13T05:19:34.562Z,35.40
2018-01-13T05:22:03.050Z,37.40
2018-01-13T05:24:31.399Z,39.20
2018-01-13T05:26:59.000Z,41.87
2018-01-13T05:29:26.901Z,37.20
2018-01-13T05:31:54.500Z,34.43
2018-01-13T05:34:22.962Z,36.80
2018-01-13T05:36:50.587Z,36.57
2018-01-13T05:39:18.280Z,42.43
2018-01-13T05:41:46.018Z,37.70
2018-01-13T05:44:13.654Z,41.87
2018-01-13T05:46:41.371Z,37.67
2018-01-13T05:49:09.203Z,40.53
2018-01-13T05:51:36.812Z,33.60
2018-01-13T05:54:05.261Z,37.10
2018-01-13T05:56:32.967Z,42.10
2018-01-13T05:59:00.564Z,41.77
2018-01-13T06:01:28.425Z,38.63
2018-01-13T06:03:56.188Z,40.23
2018-01-13T06:06:23.951Z,39.63
2018-01-13T06:08:51.661Z,39.03
2018-01-13T06:11:20.094Z,38.50
2018-01-13T06:13:47.687Z,43.23
2018-01-13T06:16:15.309Z,36.73
2018-01-13T06:18:42.999Z,38.77
2018-01-13T06:21:10.646Z,45.27
2018-01-13T06:23:38.242Z,40.17
2018-01-13T06:26:06.636Z,38.83
2018-01-13T06:28:34.241Z,37.73
2018-01-13T06:31:01.836Z,35.03
2018-01-13T06:33:30.230Z,29.57
2018-01-13T06:35:57.896Z,32.00
2018-01-13T06:38:25.614Z,26.93
2018-01-13T06:40:53.345Z,28.00
2018-01-13T06:43:20.986Z,30.47
2018-01-13T06:45:48.620Z,31.83
2018-01-13T06:48:16.985Z,36.17
2018-01-13T06:50:45.524Z,31.40
2018-01-13T06:53:13.301Z,28.83
2018-01-13T06:55:40.949Z,24.43
2018-01-13T06:58:08.540Z,26.43
2018-01-13T07:00:36.242Z,27.27
2018-01-13T07:03:03.957Z,24.33
2018-01-13T07:05:31.656Z,28.87
2018-01-13T07:07:59.248Z,22.63
2018-01-13T07:10:26.915Z,19.77
2018-01-13T07:12:54.516Z,24.90
2018-01-13T07:15:22.915Z,20.90
2018-01-13T07:17:50.504Z,24.67
2018-01-13T07:20:18.313Z,21.83
2018-01-13T07:22:46.948Z,19.07
2018-01-13T07:25:14.566Z,18.33
2018-01-13T07:27:42.928Z,17.93
2018-01-13T07:30:11.466Z,17.60
2018-01-13T07:32:39.213Z,19.70
2018-01-13T07:35:06.852Z,21.20
2018-01-13T07:37:34.752Z,20.50
2018-01-13T07:40:02.380Z,19.63
2018-01-13T07:42:29.972Z,21.33
2018-01-13T07:44:57.837Z,23.70
2018-01-13T07:47:25.598Z,21.27
2018-01-13T07:49:53.361Z,20.50
2018-01-13T07:52:21.015Z,20.73
2018-01-13T07:54:49.090Z,19.73
2018-01-13T07:57:16.750Z,21.63
2018-01-13T07:59:44.351Z,24.87
2018-01-13T08:02:13.041Z,19.93
2018-01-13T08:04:41.394Z,24.07
2018-01-13T08:07:08.996Z,19.53
2018-01-13T08:09:36.998Z,21.77
2018-01-13T08:12:04.657Z,23.07
2018-01-13T08:14:32.252Z,19.20
2018-01-13T08:16:59.930Z,22.90
2018-01-13T08:19:28.354Z,19.97
2018-01-13T08:21:56.150Z,22.00
2018-01-13T08:24:23.930Z,22.57
2018-01-13T08:26:52.316Z,24.90
2018-01-13T08:29:20.692Z,21.77
2018-01-13T08:31:49.040Z,21.90
2018-01-13T08:34:16.672Z,25.83
2018-01-13T08:36:44.435Z,21.67
2018-01-13T08:39:12.254Z,25.93
2018-01-13T08:41:40.705Z,25.73
2018-01-13T08:44:08.341Z,24.37
2018-01-13T08:46:36.053Z,24.17
2018-01-13T08:49:04.446Z,21.97
2018-01-13T08:51:32.221Z,25.47
2018-01-13T08:53:59.931Z,23.07
2018-01-13T08:56:27.655Z,23.23
2018-01-13T08:58:55.246Z,20.13
2018-01-13T09:01:24.691Z,18.50
2018-01-13T09:03:52.351Z,21.27
2018-01-13T09:06:19.944Z,18.70
2018-01-13T09:08:47.585Z,17.73
2018-01-13T09:11:15.294Z,21.53
2018-01-13T09:13:43.708Z,17.93
2018-01-13T09:16:11.401Z,17.60
2018-01-13T09:18:38.994Z,18.73
2018-01-13T09:21:06.600Z,18.50
2018-01-13T09:23:34.382Z,18.47
2018-01-13T09:26:01.993Z,16.90
2018-01-13T09:28:30.402Z,17.40
2018-01-13T09:30:58.035Z,17.20
2018-01-13T09:33:26.382Z,19.60
2018-01-13T09:35:54.024Z,18.97
2018-01-13T09:38:21.624Z,22.77
2018-01-13T09:40:50.090Z,24.90
2018-01-13T09:43:17.716Z,23.33
2018-01-13T09:45:45.580Z,24.70
2018-01-13T09:48:13.241Z,23.33
2018-01-13T09:50:40.864Z,23.93
2018-01-13T09:53:08.660Z,30.60
2018-01-13T09:55:36.261Z,28.40
2018-01-13T09:58:04.660Z,26.33
2018-01-13T10:00:32.304Z,25.40
2018-01-13T10:03:00.788Z,24.70
2018-01-13T10:05:29.316Z,26.97
2018-01-13T10:07:56.985Z,25.83
2018-01-13T10:10:24.613Z,23.43
2018-01-13T10:12:52.201Z,25.07
2018-01-13T10:15:19.957Z,23.90
2018-01-13T10:17:47.671Z,23.63
2018-01-13T10:20:16.159Z,23.70
2018-01-13T10:22:43.852Z,25.70
2018-01-13T10:25:13.124Z,30.97
2018-01-13T10:27:40.920Z,23.60
2018-01-13T10:30:08.524Z,23.90
2018-01-13T10:32:37.162Z,22.60
2018-01-13T10:35:04.818Z,22.17
2018-01-13T10:37:32.422Z,24.50
2018-01-13T10:40:00.245Z,24.60
2018-01-13T10:42:27.830Z,24.60
2018-01-13T10:44:55.485Z,22.83
2018-01-13T10:47:23.140Z,22.47
2018-01-13T10:49:50.733Z,26.03
2018-01-13T10:52:19.097Z,23.63
2018-01-13T10:54:46.796Z,23.60
2018-01-13T10:57:14.519Z,22.27
2018-01-13T10:59:42.112Z,20.60
2018-01-13T11:02:10.025Z,19.60
2018-01-13T11:04:37.876Z,23.00
2018-01-13T11:07:05.498Z,21.80
2018-01-13T11:09:33.161Z,20.47
2018-01-13T11:12:00.771Z,20.83
2018-01-13T11:14:28.615Z,20.57
2018-01-13T11:16:56.325Z,21.07
2018-01-13T11:19:25.436Z,16.93
2018-01-13T11:21:53.233Z,17.80
2018-01-13T11:24:20.866Z,17.33
2018-01-13T11:26:48.577Z,16.80
2018-01-13T11:29:16.185Z,20.07
2018-01-13T11:31:43.842Z,17.53
2018-01-13T11:34:11.637Z,17.77
2018-01-13T11:36:39.327Z,17.40
2018-01-13T11:39:07.113Z,21.47
2018-01-13T11:41:35.579Z,21.63
2018-01-13T11:44:03.355Z,24.60
2018-01-13T11:46:31.810Z,25.73
2018-01-13T11:48:59.398Z,24.60
2018-01-13T11:51:27.802Z,25.60
2018-01-13T11:53:55.446Z,24.00
2018-01-13T11:56:23.113Z,20.90
2018-01-13T11:58:50.902Z,25.13
2018-01-13T12:01:18.612Z,19.53
2018-01-13T12:03:46.988Z,19.70
2018-01-13T12:06:15.521Z,22.67
2018-01-13T12:08:43.140Z,18.57
2018-01-13T12:11:12.275Z,21.30
2018-01-13T12:13:39.877Z,20.93
2018-01-13T12:16:08.238Z,24.13
2018-01-13T12:18:35.846Z,22.53
2018-01-13T12:21:03.443Z,20.23
2018-01-13T12:23:31.035Z,20.40
2018-01-13T12:25:59.422Z,21.20
2018-01-13T12:28:27.782Z,19.83
2018-01-13T12:30:55.430Z,22.67
2018-01-13T12:33:23.184Z,24.60
2018-01-13T12:35:50.774Z,19.60
2018-01-13T12:38:19.136Z,20.17
2018-01-13T12:40:46.745Z,23.60
2018-01-13T12:43:14.383Z,18.67
2018-01-13T12:45:41.978Z,21.27
2018-01-13T12:48:09.660Z,25.33
2018-01-13T12:50:38.275Z,20.30
2018-01-13T12:53:07.620Z,21.87
2018-01-13T12:55:35.250Z,22.27
2018-01-13T12:58:03.041Z,19.13
2018-01-13T13:00:30.644Z,20.27
2018-01-13T13:02:59.139Z,21.17
2018-01-13T13:05:26.770Z,22.03
2018-01-13T13:07:54.450Z,22.70
2018-01-13T13:10:22.867Z,20.40
2018-01-13T13:12:50.500Z,22.40
2018-01-13T13:15:18.114Z,22.07
2018-01-13T13:17:45.707Z,23.10
2018-01-13T13:20:14.080Z,24.03
2018-01-13T13:22:42.614Z,24.20
2018-01-13T13:25:10.222Z,22.70
2018-01-13T13:27:38.587Z,21.70
2018-01-13T13:30:06.341Z,23.20
2018-01-13T13:32:33.975Z,25.67
2018-01-13T13:35:01.706Z,19.00
2018-01-13T13:37:29.308Z,22.93
2018-01-13T13:39:57.143Z,21.80
2018-01-13T13:42:24.734Z,23.63
2018-01-13T13:44:52.434Z,24.63
2018-01-13T13:47:20.842Z,27.37
2018-01-13T13:49:48.449Z,23.40
2018-01-13T13:52:16.174Z,24.90
2018-01-13T13:54:43.759Z,23.07
2018-01-13T13:57:11.364Z,23.73
2018-01-13T13:59:39.017Z,27.00
2018-01-13T14:02:06.628Z,21.00
2018-01-13T14:04:34.281Z,20.80
2018-01-13T14:07:02.033Z,22.37
2018-01-13T14:09:29.625Z,20.60
2018-01-13T14:11:58.173Z,23.90
2018-01-13T14:14:25.788Z,27.93
2018-01-13T14:16:54.233Z,22.03
2018-01-13T14:19:21.862Z,22.30
2018-01-13T14:21:49.632Z,24.80
2018-01-13T14:24:17.498Z,24.10
2018-01-13T14:26:45.091Z,22.87
2018-01-13T14:29:12.923Z,24.40
2018-01-13T14:31:40.608Z,23.70
2018-01-13T14:34:08.199Z,25.33
2018-01-13T14:36:36.605Z,23.40
2018-01-13T14:39:04.383Z,25.43
2018-01-13T14:41:31.973Z,28.07
2018-01-13T14:43:59.730Z,24.90
2018-01-13T14:46:27.370Z,31.33
2018-01-13T14:48:54.954Z,29.90
2018-01-13T14:51:22.569Z,26.87
2018-01-13T14:53:50.477Z,26.10
2018-01-13T14:56:19.587Z,27.70
2018-01-13T14:58:48.121Z,29.70
2018-01-13T15:01:15.975Z,28.00
2018-01-13T15:03:43.645Z,26.87
2018-01-13T15:06:11.246Z,27.43
2018-01-13T15:08:38.883Z,28.00
2018-01-13T15:11:06.627Z,28.00
2018-01-13T15:13:34.267Z,28.97
2018-01-13T15:16:01.994Z,28.73
2018-01-13T15:18:30.400Z,30.13
2018-01-13T15:20:58.005Z,28.30
2018-01-13T15:23:25.747Z,26.17
2018-01-13T15:25:53.357Z,27.47
2018-01-13T15:28:21.890Z,28.60
2018-01-13T15:30:49.480Z,28.90
2018-01-13T15:33:17.864Z,28.87
2018-01-13T15:35:46.355Z,28.33
2018-01-13T15:38:14.756Z,27.00
2018-01-13T15:40:42.397Z,29.20
2018-01-13T15:43:10.846Z,30.70
2018-01-13T15:45:38.579Z,26.73
2018-01-13T15:48:06.343Z,26.17
2018-01-13T15:50:34.025Z,29.10
2018-01-13T15:53:01.873Z,25.40
2018-01-13T15:55:29.458Z,28.47
2018-01-13T15:57:57.162Z,26.60
2018-01-13T16:00:24.789Z,32.03
2018-01-13T16:02:53.231Z,22.70
2018-01-13T16:05:20.822Z,28.97
2018-01-13T16:07:48.436Z,30.67
2018-01-13T16:10:16.109Z,28.67
2018-01-13T16:12:43.707Z,28.77
2018-01-13T16:15:12.170Z,33.40
2018-01-13T16:17:40.007Z,29.90
2018-01-13T16:20:07.770Z,30.40
2018-01-13T16:22:35.532Z,29.57
2018-01-13T16:25:03.150Z,30.60
2018-01-13T16:27:30.757Z,25.17
2018-01-13T16:29:58.580Z,31.97
2018-01-13T16:32:26.377Z,31.23
2018-01-13T16:34:54.185Z,30.40
2018-01-13T16:37:22.562Z,29.50
2018-01-13T16:39:50.922Z,33.00
2018-01-13T16:42:18.637Z,28.87
2018-01-13T16:44:46.233Z,29.87
2018-01-13T16:47:13.863Z,29.30
2018-01-13T16:49:41.556Z,28.60
2018-01-13T16:52:10.068Z,29.83
2018-01-13T16:54:38.501Z,27.10
2018-01-13T16:57:06.177Z,30.57
2018-01-13T16:59:33.866Z,30.00
2018-01-13T17:02:02.359Z,28.10
2018-01-13T17:04:29.996Z,29.67
2018-01-13T17:06:58.350Z,28.40
2018-01-13T17:09:25.984Z,30.63
2018-01-13T17:11:53.754Z,27.07
2018-01-13T17:14:21.410Z,31.20
2018-01-13T17:16:49.008Z,30.70
2018-01-13T17:19:16.607Z,31.70
2018-01-13T17:21:44.313Z,29.27
2018-01-13T17:24:11.917Z,26.97
2018-01-13T17:26:39.536Z,30.40
2018-01-13T17:29:07.302Z,28.77
2018-01-13T17:31:35.093Z,30.73
2018-01-13T17:34:02.729Z,29.00
2018-01-13T17:36:30.340Z,30.30
2018-01-13T17:38:57.956Z,36.30
2018-01-13T17:41:26.324Z,26.60
2018-01-13T17:43:54.091Z,28.23
2018-01-13T17:46:21.694Z,26.37
2018-01-13T17:48:49.298Z,27.67
2018-01-13T17:51:16.925Z,32.00
2018-01-13T17:53:44.531Z,29.77
2018-01-13T17:56:12.998Z,30.17
2018-01-13T17:58:40.685Z,26.07
2018-01-13T18:01:08.494Z,29.97
2018-01-13T18:03:36.108Z,27.50
2018-01-13T18:06:04.838Z,29.20
2018-01-13T18:08:32.479Z,26.47
2018-01-13T18:11:00.213Z,28.30
2018-01-13T18:13:28.595Z,26.90
2018-01-13T18:15:56.250Z,30.30
2018-01-13T18:18:24.654Z,26.90
2018-01-13T18:20:52.304Z,26.60
2018-01-13T18:23:20.048Z,28.23
2018-01-13T18:25:48.442Z,29.93
2018-01-13T18:28:16.052Z,31.00
2018-01-13T18:30:43.664Z,31.47
2018-01-13T18:33:11.486Z,28.27
2018-01-13T18:35:39.124Z,30.90
2018-01-13T18:38:06.742Z,30.73
2018-01-13T18:40:34.331Z,24.77
2018-01-13T18:43:01.990Z,23.13
2018-01-13T18:45:29.757Z,30.43
2018-01-13T18:47:57.427Z,24.37
2018-01-13T18:50:25.181Z,26.97
2018-01-13T18:52:52.784Z,26.23
2018-01-13T18:55:21.465Z,29.77
2018-01-13T18:57:49.934Z,27.10
2018-01-13T19:00:17.636Z,30.23
2018-01-13T19:02:45.258Z,27.20
2018-01-13T19:05:12.873Z,31.80
2018-01-13T19:07:40.645Z,30.00
2018-01-13T19:10:08.386Z,29.93
2018-01-13T19:12:36.170Z,31.60
2018-01-13T19:15:03.797Z,29.13
2018-01-13T19:17:31.523Z,24.80
2018-01-13T19:19:59.406Z,25.23
2018-01-13T19:22:27.806Z,28.83
2018-01-13T19:24:55.440Z,26.30
2018-01-13T19:27:23.836Z,27.90
2018-01-13T19:29:51.588Z,27.27
2018-01-13T19:32:19.938Z,24.77
2018-01-13T19:34:47.700Z,23.93
2018-01-13T19:37:15.441Z,23.10
2018-01-13T19:39:43.048Z,25.63
2018-01-13T19:42:11.455Z,24.80
2018-01-13T19:44:39.185Z,25.80
2018-01-13T19:47:07.718Z,26.30
2018-01-13T19:49:35.328Z,22.90
2018-01-13T19:52:03.717Z,20.07
2018-01-13T19:54:31.334Z,17.67
2018-01-13T19:56:59.124Z,21.73
2018-01-13T19:59:27.491Z,19.87
2018-01-13T20:01:56.135Z,23.13
2018-01-13T20:04:23.768Z,23.37
2018-01-13T20:06:51.556Z,19.77
2018-01-13T20:09:19.143Z,21.70
2018-01-13T20:11:46.762Z,20.93
2018-01-13T20:14:14.378Z,22.83
2018-01-13T20:16:42.884Z,21.93
2018-01-13T20:19:10.484Z,22.63
2018-01-13T20:21:38.866Z,21.60
2018-01-13T20:24:06.770Z,22.40
2018-01-13T20:26:35.226Z,18.90
2018-01-13T20:29:02.938Z,21.30
2018-01-13T20:31:30.580Z,19.43
2018-01-13T20:33:58.380Z,22.50
2018-01-13T20:36:26.246Z,20.47
2018-01-13T20:38:53.845Z,19.83
2018-01-13T20:41:22.247Z,20.70
2018-01-13T20:43:49.940Z,21.90
2018-01-13T20:46:17.543Z,17.90
2018-01-13T20:48:46.064Z,22.80
2018-01-13T20:51:13.794Z,20.60
2018-01-13T20:53:42.188Z,21.80
2018-01-13T20:56:09.792Z,18.97
2018-01-13T20:58:37.414Z,23.07
2018-01-13T21:01:05.112Z,18.47
2018-01-13T21:03:32.909Z,21.90
2018-01-13T21:06:01.278Z,17.90
2018-01-13T21:08:29.696Z,19.40
2018-01-13T21:10:57.283Z,21.20
2018-01-13T21:13:25.093Z,24.37
2018-01-13T21:15:53.522Z,22.10
2018-01-13T21:18:21.148Z,19.93
2018-01-13T21:20:48.754Z,21.23
2018-01-13T21:23:16.500Z,21.03
2018-01-13T21:25:44.365Z,20.40
2018-01-13T21:28:23.183Z,18.10
2018-01-13T21:30:50.796Z,18.83
2018-01-13T21:33:19.165Z,20.10
2018-01-13T21:35:47.545Z,25.27
2018-01-13T21:38:15.927Z,23.00
2018-01-13T21:40:44.456Z,20.40
2018-01-13T21:43:12.219Z,20.93
2018-01-13T21:45:39.870Z,22.33
2018-01-13T21:48:07.492Z,24.40
2018-01-13T21:50:35.872Z,21.13
2018-01-13T21:53:04.349Z,17.23
2018-01-13T21:55:32.716Z,21.73
2018-01-13T21:58:01.147Z,18.10
2018-01-13T22:00:28.913Z,19.27
2018-01-13T22:02:56.529Z,19.73
2018-01-13T22:05:24.978Z,17.23
2018-01-13T22:07:52.613Z,19.03
2018-01-13T22:10:20.237Z,19.57
2018-01-13T22:12:47.836Z,20.13
2018-01-13T22:15:15.539Z,20.70
2018-01-13T22:17:43.967Z,22.50
2018-01-13T22:20:11.592Z,19.43
2018-01-13T22:22:39.288Z,24.07
2018-01-13T22:25:07.718Z,22.10
2018-01-13T22:27:36.381Z,19.53
2018-01-13T22:30:04.025Z,19.33
2018-01-13T22:32:31.693Z,18.10
2018-01-13T22:34:59.466Z,20.90
2018-01-13T22:37:27.277Z,22.53
2018-01-13T22:39:54.916Z,18.67
2018-01-13T22:42:23.438Z,20.60
2018-01-13T22:44:51.101Z,22.87
2018-01-13T22:47:18.862Z,20.97
2018-01-13T22:49:46.454Z,20.70
2018-01-13T22:52:14.158Z,22.07
2018-01-13T22:54:41.756Z,24.60
2018-01-13T22:57:09.502Z,20.00
2018-01-13T22:59:37.168Z,20.70
2018-01-13T23:02:04.851Z,22.20
2018-01-13T23:04:32.639Z,20.80
2018-01-13T23:07:00.991Z,20.50
2018-01-13T23:09:28.679Z,23.30
2018-01-13T23:11:57.314Z,20.27
2018-01-13T23:14:24.910Z,24.43
2018-01-13T23:16:53.354Z,18.67
2018-01-13T23:19:21.107Z,17.07
2018-01-13T23:21:48.869Z,24.00
2018-01-13T23:24:16.632Z,22.83
2018-01-13T23:26:45.242Z,19.40
2018-01-13T23:29:13.078Z,20.77
2018-01-13T23:31:40.841Z,20.40
2018-01-13T23:34:08.534Z,20.47
2018-01-13T23:36:36.272Z,21.07
2018-01-13T23:39:03.906Z,20.30
2018-01-13T23:41:31.542Z,17.73
2018-01-13T23:43:59.176Z,22.57
2018-01-13T23:46:26.818Z,20.70
2018-01-13T23:48:54.473Z,21.83
2018-01-13T23:51:22.076Z,19.60
2018-01-13T23:53:49.919Z,20.43
2018-01-13T23:56:17.643Z,19.93
2018-01-13T23:58:45.262Z,21.00
